Time;durP1;ratioP1;P1;durP2;ratioP2;P2;SDS_P1;SDS_P2;PMS_P1;PMS_P2;Temp;Humidity;BMP_temperature;BMP_pressure;BME280_temperature;BME280_humidity;BME280_pressure;Samples;Min_cycle;Max_cycle;Signal;HPM_P1;HPM_P2
2020/12/11 13:50:53;;;;;;;70.20;48.60;;;;;;;13.16;62.00;92896.25;5034093;27;20394;-77
2020/12/11 13:53:19;;;;;;;75.50;52.72;;;;;;;13.10;62.01;92892.19;4992378;28;20049;-78
2020/12/11 13:55:44;;;;;;;83.88;56.83;;;;;;;13.08;61.80;92896.28;4998964;28;20528;-77
2020/12/11 13:58:13;;;;;;;73.20;54.42;;;;;;;13.10;61.80;92902.03;4996075;28;20029;-77
2020/12/11 14:00:39;;;;;;;76.57;57.60;;;;;;;12.94;61.71;92896.56;4998380;28;20041;-77
2020/12/11 14:03:07;;;;;;;68.15;52.03;;;;;;;12.89;61.88;92907.38;4993519;28;20046;-77
2020/12/11 14:05:34;;;;;;;70.43;54.42;;;;;;;12.89;62.26;92896.75;4996195;28;20034;-77
2020/12/11 14:07:59;;;;;;;63.47;45.17;;;;;;;12.84;62.18;92895.09;4997142;28;20045;-77
2020/12/11 14:10:25;;;;;;;40.97;31.52;;;;;;;12.81;61.95;92901.00;4999809;28;20026;-76
2020/12/11 14:12:50;;;;;;;40.05;28.33;;;;;;;12.71;61.04;92897.97;4976126;28;20086;-77
2020/12/11 14:15:16;;;;;;;42.95;30.77;;;;;;;12.66;61.09;92903.50;4979224;28;20050;-77
2020/12/11 14:22:52;;;;;;;43.10;28.70;;;;;;;12.39;61.51;92889.63;4995746;28;20041;-76
2020/12/11 14:25:17;;;;;;;37.35;27.15;;;;;;;12.30;60.77;92898.72;4997376;28;20022;-76
2020/12/11 14:27:43;;;;;;;37.90;29.38;;;;;;;12.04;60.10;92888.25;4997993;28;20046;-75
2020/12/11 14:30:08;;;;;;;22.13;16.75;;;;;;;11.81;59.69;92876.38;5009046;28;20479;-76
2020/12/11 14:32:34;;;;;;;32.95;24.10;;;;;;;11.73;59.65;92878.72;4989698;28;20046;-75
2020/12/11 14:34:59;;;;;;;45.75;33.50;;;;;;;11.63;59.79;92880.94;4981461;28;20050;-74
2020/12/11 14:37:25;;;;;;;28.13;21.63;;;;;;;11.52;59.46;92877.84;4999062;28;20038;-74
2020/12/11 14:39:50;;;;;;;27.00;21.05;;;;;;;11.44;58.94;92875.19;4996402;28;20061;-75
2020/12/11 14:42:16;;;;;;;33.80;19.80;;;;;;;11.30;59.09;92881.47;4993014;28;20120;-75
2020/12/11 14:44:41;;;;;;;43.92;25.38;;;;;;;11.19;59.71;92871.53;4987576;28;20047;-74
2020/12/11 14:47:07;;;;;;;43.97;26.60;;;;;;;11.06;59.96;92869.84;4980192;28;20552;-75
2020/12/11 14:49:32;;;;;;;21.65;14.52;;;;;;;10.83;60.50;92867.38;4999386;28;20074;-75
2020/12/11 14:51:58;;;;;;;15.13;10.88;;;;;;;10.85;60.37;92881.03;4993285;28;20531;-75
2020/12/11 14:54:23;;;;;;;73.90;46.45;;;;;;;10.81;60.03;92880.13;4979096;28;20038;-75
2020/12/11 14:56:49;;;;;;;30.83;21.05;;;;;;;10.86;60.92;92869.38;4977313;28;20157;-75
2020/12/11 14:59:16;;;;;;;20.65;13.63;;;;;;;10.77;60.52;92884.47;4976610;28;20047;-75
2020/12/11 15:01:45;;;;;;;23.52;16.33;;;;;;;10.72;60.84;92876.69;4963274;28;20061;-76
2020/12/11 15:04:10;;;;;;;20.10;13.77;;;;;;;10.54;60.98;92869.88;4963166;28;20030;-76
2020/12/11 15:06:36;;;;;;;20.45;13.75;;;;;;;10.50;61.23;92874.22;4965641;28;20035;-75
2020/12/11 15:09:03;;;;;;;17.98;13.00;;;;;;;10.45;61.12;92871.72;4961079;28;20138;-76
2020/12/11 15:11:29;;;;;;;23.55;15.20;;;;;;;10.55;60.97;92879.34;4959954;28;20526;-77
2020/12/11 15:13:55;;;;;;;25.95;17.27;;;;;;;10.45;60.84;92882.28;4962288;28;20022;-76
2020/12/11 15:16:22;;;;;;;19.60;11.90;;;;;;;10.33;61.29;92885.53;4963983;28;20467;-77
2020/12/11 15:18:50;;;;;;;22.70;14.52;;;;;;;10.24;61.54;92891.88;4979888;28;20073;-76
2020/12/11 15:21:18;;;;;;;16.23;10.07;;;;;;;10.15;61.55;92883.13;4983997;28;20525;-76
2020/12/11 15:23:43;;;;;;;13.43;9.32;;;;;;;10.09;61.08;92879.09;4973601;28;20494;-76
2020/12/11 15:26:09;;;;;;;17.50;12.20;;;;;;;10.18;60.92;92882.53;4968449;28;20534;-75
2020/12/11 15:28:34;;;;;;;39.10;23.30;;;;;;;10.08;61.12;92880.16;4985661;28;20399;-76
2020/12/11 15:31:00;;;;;;;17.98;12.70;;;;;;;9.97;61.58;92877.81;4978517;28;20058;-76
2020/12/11 15:33:25;;;;;;;16.08;9.52;;;;;;;9.91;61.60;92884.31;4967019;28;20046;-76
2020/12/11 15:35:51;;;;;;;81.45;35.00;;;;;;;9.99;61.15;92886.19;4968124;28;20129;-76
2020/12/11 15:38:16;;;;;;;138.73;79.88;;;;;;;9.90;61.10;92877.50;4977128;28;20192;-76
2020/12/11 15:40:42;;;;;;;77.90;49.25;;;;;;;9.98;61.09;92883.84;4958845;28;20703;-76
2020/12/11 15:43:07;;;;;;;66.68;41.65;;;;;;;10.08;60.78;92885.44;4981606;28;20049;-76
2020/12/11 15:45:33;;;;;;;51.15;29.10;;;;;;;10.10;61.17;92884.06;4962563;28;20042;-76
2020/12/11 15:47:59;;;;;;;14.52;10.43;;;;;;;9.99;61.27;92877.50;4966090;28;20077;-75
2020/12/11 15:50:25;;;;;;;11.55;8.20;;;;;;;9.94;60.91;92883.69;4978221;28;20775;-76
2020/12/11 15:52:55;;;;;;;18.15;12.15;;;;;;;9.89;60.46;92881.19;4977246;28;20431;-75
2020/12/11 15:55:22;;;;;;;19.67;13.38;;;;;;;9.86;60.34;92876.56;4980924;28;20364;-75
2020/12/11 15:57:48;;;;;;;16.55;11.57;;;;;;;9.90;59.78;92877.50;4978486;28;20046;-76
2020/12/11 16:00:14;;;;;;;13.70;9.90;;;;;;;9.84;59.87;92872.66;4978463;28;20042;-76
2020/12/11 16:02:40;;;;;;;11.60;8.30;;;;;;;9.85;60.24;92874.97;4979323;28;20141;-76
2020/12/11 16:05:05;;;;;;;10.75;7.35;;;;;;;9.89;60.42;92888.34;4981530;28;21154;-76
2020/12/11 16:07:31;;;;;;;11.18;7.30;;;;;;;9.89;60.44;92875.94;4978926;28;20018;-75
2020/12/11 16:09:56;;;;;;;18.33;8.38;;;;;;;9.83;60.61;92877.13;4979552;28;20140;-75
2020/12/11 16:12:22;;;;;;;9.38;6.88;;;;;;;9.76;61.00;92876.81;4979387;28;20086;-76
2020/12/11 16:14:47;;;;;;;10.20;6.40;;;;;;;9.76;61.16;92876.81;4976033;28;20054;-76
2020/12/11 16:17:13;;;;;;;15.57;8.55;;;;;;;9.78;61.00;92873.84;4975473;28;20104;-77
2020/12/11 16:19:38;;;;;;;18.55;10.70;;;;;;;9.77;60.81;92881.03;4959855;28;20019;-77
2020/12/11 16:22:04;;;;;;;17.95;10.60;;;;;;;9.79;61.03;92878.84;4960012;28;20035;-77
2020/12/11 16:24:29;;;;;;;14.07;7.22;;;;;;;9.78;61.09;92882.56;4961454;28;20074;-76
2020/12/11 16:26:55;;;;;;;25.23;13.82;;;;;;;9.76;61.34;92879.47;4958966;28;20619;-77
2020/12/11 16:29:21;;;;;;;18.75;11.50;;;;;;;9.74;61.54;92880.84;4961331;28;20042;-77
2020/12/11 16:31:50;;;;;;;10.85;9.48;;;;;;;9.75;61.76;92883.19;4961517;28;20085;-77
2020/12/11 16:34:19;;;;;;;11.48;8.02;;;;;;;9.69;61.54;92865.91;4962380;28;20022;-77
2020/12/11 16:36:50;;;;;;;11.23;9.98;;;;;;;9.73;61.81;92882.69;4977224;28;20046;-76
2020/12/11 16:39:16;;;;;;;9.63;7.68;;;;;;;9.75;61.70;92883.19;4960889;28;20117;-76
2020/12/11 16:41:44;;;;;;;17.33;10.80;;;;;;;9.80;61.53;92877.75;4957707;28;20662;-76
2020/12/11 16:44:21;;;;;;;18.50;12.55;;;;;;;9.84;61.51;92872.66;4960526;28;20047;-77
2020/12/11 16:46:53;;;;;;;15.00;11.48;;;;;;;9.88;60.93;92869.09;4975338;28;20116;-76
2020/12/11 16:49:24;;;;;;;14.45;11.52;;;;;;;9.89;60.54;92869.88;4979612;28;20443;-77
2020/12/11 16:51:49;;;;;;;13.50;9.88;;;;;;;9.91;60.18;92867.72;4979875;28;20073;-77
2020/12/11 16:54:15;;;;;;;17.85;11.02;;;;;;;9.86;60.29;92865.22;4993411;28;20036;-78
2020/12/11 16:56:41;;;;;;;25.83;14.35;;;;;;;9.87;60.56;92867.53;4976085;28;20872;-76
2020/12/11 16:59:09;;;;;;;17.90;12.73;;;;;;;9.90;60.53;92869.56;4979031;28;20050;-77
2020/12/11 17:01:39;;;;;;;24.25;15.25;;;;;;;9.98;60.37;92860.09;4981604;28;20482;-77
2020/12/11 17:04:23;;;;;;;31.90;18.50;;;;;;;9.93;60.48;92849.69;4979966;28;20495;-77
2020/12/11 17:06:51;;;;;;;39.63;20.25;;;;;;;10.04;60.72;92864.16;4979738;28;20418;-77
2020/12/11 17:09:17;;;;;;;47.95;25.95;;;;;;;10.00;60.67;92863.22;4964660;28;20074;-78
2020/12/11 17:11:55;;;;;;;71.88;40.40;;;;;;;10.00;60.90;92866.66;4970532;28;20077;-77
2020/12/11 17:14:20;;;;;;;49.10;28.42;;;;;;;9.98;60.88;92868.03;4981361;28;20499;-77
2020/12/11 17:16:48;;;;;;;35.38;22.83;;;;;;;9.93;60.82;92863.66;4981720;28;20026;-76
2020/12/11 17:19:14;;;;;;;25.05;17.30;;;;;;;9.85;61.09;92859.16;4980699;28;20026;-76
2020/12/11 17:21:39;;;;;;;26.17;17.02;;;;;;;9.90;60.80;92874.06;4981272;28;20034;-76
2020/12/11 17:24:05;;;;;;;31.38;20.25;;;;;;;9.86;61.29;92870.50;4979229;28;20050;-75
2020/12/11 17:26:34;;;;;;;30.20;19.95;;;;;;;9.80;61.50;92861.94;4974856;28;20522;-76
2020/12/11 17:29:03;;;;;;;35.33;21.70;;;;;;;9.76;61.64;92860.22;4979424;28;20049;-76
2020/12/11 17:34:28;;;;;;;23.75;16.25;;;;;;;9.79;61.77;92859.59;4973646;28;20517;-76
2020/12/11 17:36:53;;;;;;;45.72;31.33;;;;;;;9.78;61.91;92866.72;4955427;28;20527;-76
2020/12/11 17:39:18;;;;;;;49.05;29.10;;;;;;;9.78;62.21;92864.09;4961554;28;20035;-76
2020/12/11 17:41:49;;;;;;;160.05;72.85;;;;;;;9.80;62.20;92867.22;4956490;28;20082;-76
2020/12/11 17:44:15;;;;;;;71.90;39.70;;;;;;;9.80;62.37;92867.22;4959349;28;20070;-76
2020/12/11 17:46:42;;;;;;;41.78;27.63;;;;;;;9.78;62.16;92869.38;4954447;28;20113;-76
2020/12/11 17:49:08;;;;;;;37.78;23.13;;;;;;;9.78;61.80;92869.38;4980271;28;20049;-75
2020/12/11 17:51:33;;;;;;;26.00;17.10;;;;;;;9.75;62.11;92864.72;4976663;28;20054;-76
2020/12/11 17:53:59;;;;;;;20.48;14.63;;;;;;;9.78;61.80;92874.63;4975263;28;20042;-76
2020/12/11 17:56:24;;;;;;;16.00;10.82;;;;;;;9.77;62.02;92861.78;4977586;28;20419;-79
2020/12/11 17:58:50;;;;;;;22.85;16.17;;;;;;;9.75;61.95;92859.44;4976613;28;20080;-79
2020/12/11 18:01:15;;;;;;;31.30;20.63;;;;;;;9.73;62.83;92856.31;4976058;28;20030;-79
2020/12/11 18:03:41;;;;;;;27.98;19.15;;;;;;;9.69;63.42;92859.88;4977528;28;20545;-76
2020/12/11 18:06:06;;;;;;;28.48;19.48;;;;;;;9.71;62.79;92863.78;4976703;28;20042;-78
2020/12/11 18:08:32;;;;;;;34.47;23.83;;;;;;;9.63;62.57;92861.09;4990521;28;20038;-78
2020/12/11 18:10:58;;;;;;;34.83;24.65;;;;;;;9.71;62.98;92873.53;4977592;28;20050;-82
2020/12/11 18:13:23;;;;;;;34.95;24.95;;;;;;;9.58;63.39;92862.00;4980723;28;20483;-77
2020/12/11 18:15:49;;;;;;;36.63;24.42;;;;;;;9.53;63.11;92856.84;4975996;28;20491;-77
2020/12/11 18:18:14;;;;;;;44.78;28.33;;;;;;;9.52;63.51;92871.91;4981568;28;20045;-78
2020/12/11 18:20:39;;;;;;;33.17;22.35;;;;;;;9.51;63.78;92874.84;4976829;28;20509;-77
2020/12/11 18:23:05;;;;;;;29.00;20.17;;;;;;;9.50;63.76;92868.00;4979757;28;20115;-77
2020/12/11 18:25:34;;;;;;;30.80;21.00;;;;;;;9.57;63.52;92868.38;4977587;28;20058;-78
2020/12/11 18:28:00;;;;;;;34.05;22.85;;;;;;;9.53;63.22;92856.84;4977035;28;20480;-78
2020/12/11 18:30:25;;;;;;;34.88;23.90;;;;;;;9.50;63.18;92857.47;4980142;28;20483;-78
2020/12/11 18:32:51;;;;;;;75.00;41.63;;;;;;;9.54;63.24;92866.31;4974848;28;20051;-78
2020/12/11 18:35:16;;;;;;;73.22;41.90;;;;;;;9.49;63.39;92856.69;4975667;28;20053;-78
2020/12/11 18:37:42;;;;;;;33.88;21.30;;;;;;;9.53;63.70;92862.13;4981340;28;20543;-78
2020/12/11 18:40:08;;;;;;;33.10;19.20;;;;;;;9.43;63.65;92852.63;4965426;28;20031;-77
2020/12/11 18:42:33;;;;;;;24.02;16.42;;;;;;;9.42;63.49;92856.38;4963373;28;20122;-77
2020/12/11 18:44:58;;;;;;;20.55;13.73;;;;;;;9.37;63.32;92858.34;4971505;28;20046;-77
2020/12/11 18:47:24;;;;;;;20.70;15.25;;;;;;;9.32;63.35;92850.56;4981644;28;20156;-77
2020/12/11 18:49:50;;;;;;;24.35;15.68;;;;;;;9.31;63.31;92847.16;4979113;28;20046;-77
2020/12/11 18:52:15;;;;;;;22.80;15.70;;;;;;;9.28;63.54;92852.25;4985308;28;20018;-77
2020/12/11 18:54:42;;;;;;;23.38;14.75;;;;;;;9.24;63.19;92849.44;4981348;28;20495;-78
2020/12/11 18:57:08;;;;;;;26.67;16.65;;;;;;;9.25;63.09;92855.47;4982828;28;20042;-78
2020/12/11 18:59:34;;;;;;;42.13;28.90;;;;;;;9.25;62.76;92863.38;4979409;28;20141;-78
2020/12/11 19:02:02;;;;;;;51.08;34.78;;;;;;;9.21;62.70;92857.16;4983067;28;20562;-77
2020/12/11 19:04:28;;;;;;;36.15;27.58;;;;;;;9.27;62.96;92858.59;4981803;28;20765;-76
2020/12/11 19:06:54;;;;;;;33.88;25.23;;;;;;;9.24;62.78;92859.19;4980621;28;20053;-77
2020/12/11 19:09:19;;;;;;;23.02;17.70;;;;;;;9.18;62.51;92855.16;4980528;28;20042;-77
2020/12/11 19:11:46;;;;;;;11.02;9.23;;;;;;;9.14;62.33;92862.88;4979889;28;20042;-78
2020/12/11 19:14:12;;;;;;;12.23;9.15;;;;;;;9.06;62.56;92858.34;4981486;28;20042;-77
2020/12/11 19:16:39;;;;;;;13.88;10.48;;;;;;;9.06;62.66;92853.06;4981164;28;20037;-77
2020/12/11 19:19:05;;;;;;;14.98;10.35;;;;;;;8.96;62.45;92854.09;4980620;28;20045;-77
2020/12/11 19:21:31;;;;;;;12.85;10.10;;;;;;;8.95;62.67;92857.00;4983618;28;20042;-77
2020/12/11 19:23:56;;;;;;;13.80;7.45;;;;;;;8.93;62.67;92865.25;4978747;28;20050;-77
2020/12/11 19:26:22;;;;;;;9.32;8.15;;;;;;;8.89;62.98;92861.66;4978340;28;20070;-77
2020/12/11 19:28:47;;;;;;;9.48;8.45;;;;;;;8.78;62.96;92846.38;4981075;28;20022;-77
2020/12/11 19:31:13;;;;;;;9.07;6.80;;;;;;;8.80;63.24;92865.28;4981841;28;20026;-77
2020/12/11 19:33:38;;;;;;;9.38;5.70;;;;;;;8.78;63.28;92868.22;4990206;28;20094;-77
2020/12/11 19:36:07;;;;;;;10.05;7.53;;;;;;;8.75;63.30;92857.53;4980002;28;20038;-78
2020/12/11 19:38:33;;;;;;;31.27;18.63;;;;;;;8.80;63.32;92860.78;4978994;28;20046;-76
2020/12/11 19:41:00;;;;;;;11.18;8.57;;;;;;;8.71;63.36;92852.06;4981992;28;20407;-76
2020/12/11 19:43:25;;;;;;;10.95;8.52;;;;;;;8.57;63.10;92817.09;4995725;28;20413;-77
2020/12/11 19:45:51;;;;;;;15.00;12.13;;;;;;;8.72;62.83;92847.56;4978406;28;20046;-77
2020/12/11 19:48:16;;;;;;;16.05;9.73;;;;;;;8.71;62.83;92852.06;4978482;28;20058;-77
2020/12/11 19:50:43;;;;;;;15.77;11.88;;;;;;;8.63;63.04;92845.66;4980959;28;20515;-76
2020/12/11 19:53:09;;;;;;;19.70;13.45;;;;;;;8.61;63.38;92853.06;4977598;28;20621;-77
2020/12/11 19:55:35;;;;;;;27.17;16.27;;;;;;;8.44;63.62;92852.16;4962919;28;20081;-76
2020/12/11 19:58:00;;;;;;;12.88;8.20;;;;;;;8.34;64.22;92860.28;4960600;28;20058;-77
2020/12/11 20:00:26;;;;;;;27.70;18.17;;;;;;;8.41;64.16;92848.25;4973548;28;20039;-77
2020/12/11 20:02:51;;;;;;;40.03;23.23;;;;;;;8.39;64.13;92849.66;4960829;28;20051;-77
2020/12/11 20:05:17;;;;;;;34.85;19.58;;;;;;;8.41;64.17;92842.22;4967816;28;20050;-76
2020/12/11 20:10:26;;;;;;;258.83;118.13;;;;;;;8.47;63.86;92851.56;4961596;28;20085;-76
2020/12/11 20:12:52;;;;;;;135.85;58.30;;;;;;;8.47;63.80;92835.75;4960388;28;20523;-77
2020/12/11 20:15:17;;;;;;;89.05;37.85;;;;;;;8.49;63.63;92828.34;4957341;28;20109;-77
2020/12/11 20:17:45;;;;;;;161.75;67.88;;;;;;;8.53;63.80;92845.13;4960269;28;20047;-77
2020/12/11 20:20:10;;;;;;;126.72;53.20;;;;;;;8.42;64.17;92828.75;4959307;28;20042;-77
2020/12/11 20:22:36;;;;;;;127.47;61.03;;;;;;;8.45;64.08;92843.97;4960406;28;20029;-78
2020/12/11 20:25:01;;;;;;;88.15;45.03;;;;;;;8.40;63.89;92843.31;4980363;28;20018;-77
2020/12/11 20:27:27;;;;;;;174.82;75.63;;;;;;;8.40;63.72;92836.19;4980745;28;20042;-77
2020/12/11 20:29:52;;;;;;;151.80;67.15;;;;;;;8.41;63.89;92836.94;4978458;28;20049;-77
2020/12/11 20:32:18;;;;;;;329.42;119.30;;;;;;;8.34;63.90;92839.22;4982844;28;20038;-77
2020/12/11 20:34:43;;;;;;;197.48;80.43;;;;;;;8.36;63.98;92839.69;4977479;28;20034;-77
2020/12/11 20:37:10;;;;;;;91.80;41.95;;;;;;;8.20;64.16;92836.63;4983570;28;20090;-78
2020/12/11 20:39:35;;;;;;;177.10;82.13;;;;;;;8.15;64.26;92834.88;4981467;28;20034;-78
2020/12/11 20:42:01;;;;;;;118.20;56.78;;;;;;;8.20;64.47;92836.63;4978570;28;20654;-77
2020/12/11 20:44:27;;;;;;;66.88;30.48;;;;;;;8.18;64.28;92829.00;4978893;28;20112;-78
2020/12/11 20:46:52;;;;;;;155.00;73.80;;;;;;;8.18;64.35;92823.75;4976442;28;20029;-77
2020/12/11 20:49:18;;;;;;;166.40;77.82;;;;;;;8.14;64.35;92828.03;4981492;28;20047;-78
2020/12/11 20:51:44;;;;;;;201.05;97.70;;;;;;;8.13;64.21;92829.13;4979882;28;20050;-77
2020/12/11 20:54:10;;;;;;;164.77;86.60;;;;;;;8.14;64.18;92830.69;4977168;28;20067;-78
2020/12/11 20:56:35;;;;;;;148.60;79.93;;;;;;;8.07;64.38;92814.50;4979587;28;20039;-79
2020/12/11 20:59:04;;;;;;;150.18;78.55;;;;;;;7.98;64.75;92803.13;4977039;28;20479;-77
2020/12/11 21:01:30;;;;;;;53.35;31.05;;;;;;;7.99;64.87;92815.22;4981840;28;20049;-78
2020/12/11 21:03:56;;;;;;;100.90;54.00;;;;;;;8.02;65.34;92816.47;4958991;28;20713;-77
2020/12/11 21:06:22;;;;;;;45.50;26.70;;;;;;;7.99;64.99;92807.31;4974509;28;20038;-77
2020/12/11 21:09:01;;;;;;;43.70;24.75;;;;;;;8.09;64.81;92822.91;4974409;28;20057;-77
2020/12/11 21:11:27;;;;;;;89.88;46.75;;;;;;;8.14;64.92;92806.22;4981199;28;20462;-77
2020/12/11 21:13:52;;;;;;;82.03;40.92;;;;;;;8.20;64.64;92800.56;4975321;28;20030;-77
2020/12/11 21:16:18;;;;;;;65.32;33.08;;;;;;;8.26;64.41;92801.19;4993564;28;20030;-77
2020/12/11 21:18:43;;;;;;;60.28;31.98;;;;;;;8.27;64.41;92800.91;4961538;28;20043;-78
2020/12/11 21:21:09;;;;;;;25.10;15.13;;;;;;;8.32;64.04;92796.63;4971041;28;20684;-77
2020/12/11 21:23:34;;;;;;;20.40;12.85;;;;;;;8.42;64.09;92801.66;4978662;28;20097;-76
2020/12/11 21:26:00;;;;;;;24.35;14.32;;;;;;;8.36;64.58;92793.09;4980908;28;20132;-77
2020/12/11 21:28:26;;;;;;;28.20;17.25;;;;;;;8.33;64.60;92783.19;4980611;28;21291;-77
2020/12/11 21:30:54;;;;;;;30.85;20.27;;;;;;;8.46;64.55;92781.56;4981618;28;20035;-77
2020/12/11 21:35:57;;;;;;;58.22;35.38;;;;;;;8.50;64.97;92772.75;4979629;28;20598;-77
2020/12/11 21:38:23;;;;;;;82.40;43.42;;;;;;;8.60;65.08;92777.03;4973876;28;21063;-77
2020/12/11 21:40:48;;;;;;;78.05;44.38;;;;;;;8.62;65.35;92780.13;4959198;28;20046;-76
2020/12/11 21:43:14;;;;;;;73.78;44.75;;;;;;;8.62;65.35;92777.47;4979458;28;20062;-77
2020/12/11 21:45:40;;;;;;;84.22;48.30;;;;;;;8.64;65.49;92780.59;4980417;28;20108;-77
2020/12/11 21:48:05;;;;;;;112.30;57.42;;;;;;;8.64;65.69;92764.81;4975377;28;20038;-77
2020/12/11 21:50:31;;;;;;;183.10;87.30;;;;;;;8.72;65.47;92779.09;4970883;28;20051;-76
2020/12/11 21:52:57;;;;;;;126.05;64.55;;;;;;;8.70;65.20;92772.25;4962025;28;20046;-77
2020/12/11 21:55:23;;;;;;;112.78;60.83;;;;;;;8.74;65.16;92772.47;4980327;28;20109;-77
2020/12/11 21:57:52;;;;;;;128.65;67.68;;;;;;;8.82;65.03;92774.34;4979459;28;20141;-77
2020/12/11 22:00:18;;;;;;;147.00;80.60;;;;;;;8.81;64.88;92759.63;4976456;28;20050;-76
2020/12/11 22:02:44;;;;;;;133.75;71.38;;;;;;;8.90;64.45;92765.72;4978550;28;20054;-76
2020/12/11 22:05:09;;;;;;;100.18;56.63;;;;;;;8.88;64.70;92764.47;4981701;28;20041;-76
2020/12/11 22:07:35;;;;;;;80.22;48.33;;;;;;;8.82;64.67;92747.22;4982567;28;20034;-76
2020/12/11 22:10:02;;;;;;;71.18;43.90;;;;;;;8.92;65.04;92771.47;4978200;28;20495;-76
2020/12/11 22:12:28;;;;;;;61.92;40.67;;;;;;;8.93;65.04;92757.22;4981318;28;20129;-76
2020/12/11 22:14:55;;;;;;;65.80;40.50;;;;;;;8.96;65.17;92758.44;4980704;28;20104;-76
2020/12/11 22:17:20;;;;;;;70.55;42.22;;;;;;;8.94;65.26;92745.56;4987405;28;20100;-77
2020/12/11 22:19:46;;;;;;;85.88;48.90;;;;;;;8.99;65.13;92748.06;4980269;28;20398;-76
2020/12/11 22:22:11;;;;;;;96.70;52.30;;;;;;;9.03;65.33;92743.78;4983772;28;20030;-77
2020/12/11 22:24:54;;;;;;;102.47;57.78;;;;;;;9.03;65.43;92741.16;4985481;28;20125;-77
2020/12/11 22:27:20;;;;;;;157.23;83.95;;;;;;;9.08;65.58;92738.38;4980123;28;20917;-76
2020/12/11 22:29:45;;;;;;;118.78;66.78;;;;;;;9.03;65.65;92735.88;4982786;28;20085;-77
2020/12/11 22:32:11;;;;;;;79.60;50.55;;;;;;;9.04;65.94;92724.22;4983141;28;20052;-77
2020/12/11 22:34:37;;;;;;;89.03;55.85;;;;;;;9.15;65.77;92735.28;4983868;28;20024;-77
2020/12/11 22:37:03;;;;;;;93.00;57.95;;;;;;;9.19;65.90;92730.94;4962296;28;20026;-76
2020/12/11 22:39:29;;;;;;;89.60;57.35;;;;;;;9.18;65.57;92718.09;4980389;28;20037;-76
2020/12/11 22:41:57;;;;;;;82.63;53.38;;;;;;;9.22;65.30;92721.66;4980802;28;20184;-77
2020/12/11 22:44:23;;;;;;;82.03;55.30;;;;;;;9.21;65.69;92720.09;4984120;28;20046;-76
2020/12/11 22:46:50;;;;;;;89.28;54.08;;;;;;;9.18;65.34;92712.81;4976941;28;20380;-77
2020/12/11 22:49:16;;;;;;;76.13;50.45;;;;;;;9.23;65.59;92715.31;4984535;28;20103;-76
2020/12/11 22:51:42;;;;;;;79.68;51.17;;;;;;;9.21;65.13;92706.94;4982080;28;20034;-80
2020/12/11 22:54:09;;;;;;;83.53;52.63;;;;;;;9.28;65.17;92709.91;4980384;28;20457;-78
2020/12/11 22:56:34;;;;;;;76.25;50.00;;;;;;;9.32;64.99;92705.56;4984117;28;20097;-77
2020/12/11 22:59:00;;;;;;;71.65;48.17;;;;;;;9.34;64.97;92700.75;4981467;28;20377;-77
2020/12/11 23:01:25;;;;;;;81.82;51.63;;;;;;;9.33;64.83;92696.59;4984776;28;20064;-77
2020/12/11 23:03:51;;;;;;;76.38;50.55;;;;;;;9.40;65.04;92696.88;4981423;28;20069;-78
2020/12/11 23:06:16;;;;;;;72.18;50.95;;;;;;;9.38;65.00;92696.44;4982401;28;20085;-75
2020/12/11 23:08:42;;;;;;;72.78;52.30;;;;;;;9.35;65.16;92694.41;4981541;28;20058;-76
2020/12/11 23:11:07;;;;;;;87.57;55.50;;;;;;;9.30;65.40;92691.91;4982334;28;20061;-76
2020/12/11 23:13:32;;;;;;;85.93;57.10;;;;;;;9.34;65.26;92690.19;4983908;28;20026;-75
2020/12/11 23:15:58;;;;;;;91.85;57.35;;;;;;;9.40;65.04;92688.97;4979909;28;20038;-76
2020/12/11 23:18:26;;;;;;;85.25;56.45;;;;;;;9.42;64.92;92686.81;4982705;28;20376;-76
2020/12/11 23:20:54;;;;;;;79.80;54.47;;;;;;;9.39;64.97;92687.44;4980478;28;20054;-76
2020/12/11 23:23:26;;;;;;;76.15;52.72;;;;;;;9.37;65.09;92679.06;4982856;28;20050;-76
2020/12/11 23:25:52;;;;;;;76.18;51.92;;;;;;;9.44;64.94;92684.66;4978501;28;20089;-76
2020/12/11 23:28:17;;;;;;;79.75;53.92;;;;;;;9.45;64.74;92683.56;4965993;28;20468;-76
2020/12/11 23:30:43;;;;;;;75.60;52.25;;;;;;;9.44;64.73;92679.38;4962277;28;20069;-77
2020/12/11 23:33:09;;;;;;;80.55;52.30;;;;;;;9.49;64.82;92687.91;4989220;28;20083;-76
2020/12/11 23:35:35;;;;;;;77.35;51.60;;;;;;;9.47;64.74;92674.28;4972544;28;20043;-76
2020/12/11 23:38:00;;;;;;;79.30;52.20;;;;;;;9.49;64.69;92679.22;4963952;28;20134;-76
2020/12/11 23:40:26;;;;;;;94.13;60.33;;;;;;;9.48;64.57;92665.25;4963759;28;20602;-76
2020/12/11 23:42:51;;;;;;;81.43;56.35;;;;;;;9.50;64.45;92683.41;4961487;28;20150;-76
2020/12/11 23:45:17;;;;;;;78.45;54.08;;;;;;;9.47;64.48;92668.22;4962215;28;20047;-75
2020/12/11 23:47:42;;;;;;;77.20;52.55;;;;;;;9.52;64.74;92670.72;4970299;28;20042;-76
2020/12/11 23:50:08;;;;;;;81.97;55.33;;;;;;;9.47;64.62;92668.22;4978848;28;20051;-76
2020/12/11 23:52:34;;;;;;;84.40;57.75;;;;;;;9.44;64.64;92663.56;4966375;28;20110;-77
2020/12/11 23:55:04;;;;;;;82.45;56.13;;;;;;;9.45;64.61;92662.47;4963665;28;20085;-78
2020/12/11 23:57:33;;;;;;;85.15;56.72;;;;;;;9.45;64.55;92659.84;4978017;28;20162;-76
2020/12/11 23:59:59;;;;;;;91.90;60.38;;;;;;;9.49;64.78;92658.13;4983101;28;20034;-75
